CYBU weather

Nipawin Airport
Nipawin, Saskatchewan, Canada

Public forecast

Using degrees Celsius for public forecast. Weather courtesy of forecast.io.

Current aviation weather report (METAR) for Nipawin Airport

Retrieved 2020/05/25 19:00 UTC (39 minutes ago):

CYBU 251900Z AUTO 24008G18KT 220V280 9SM CLR 26/03 A2984 RMK SLP112 DENSITY ALT 2800FT

Closest aviation forecast (TAF) to Nipawin Airport

Closest forecast is Prince Albert Glass Field, 60.2 nm (111.5 km) W. Retrieved 2020/05/25 19:00 UTC (39 minutes ago):

TAF CYPA 251840Z 2519/2604 23010G20KT P6SM FEW080 FEW140 BECMG 2519/2521 BKN090 FM260300 20008KT P6SM BKN090 RMK NXT FCST BY 260100Z